Time;durP1;ratioP1;P1;durP2;ratioP2;P2;SDS_P1;SDS_P2;PMS_P1;PMS_P2;Temp;Humidity;BMP_temperature;BMP_pressure;BME280_temperature;BME280_humidity;BME280_pressure;Samples;Min_cycle;Max_cycle;Signal;HPM_P1;HPM_P2
2021/01/19 00:02:13;;;;;;;30.60;9.00;;;;;;;-12.47;58.31;100724.16;1657091;85;21906;-62
2021/01/19 00:04:40;;;;;;;25.27;8.60;;;;;;;-12.49;58.04;100724.21;1657090;86;21886;-62
2021/01/19 00:07:07;;;;;;;24.93;9.50;;;;;;;-12.47;58.42;100719.34;1657094;85;21295;-61
2021/01/19 00:09:35;;;;;;;30.17;9.60;;;;;;;-12.32;58.70;100729.02;1657193;86;21216;-61
2021/01/19 00:12:02;;;;;;;26.00;8.53;;;;;;;-12.22;58.28;100719.05;1657086;85;21188;-63
2021/01/19 00:14:30;;;;;;;22.90;7.70;;;;;;;-12.20;58.15;100711.48;1656880;85;21571;-62
2021/01/19 00:16:58;;;;;;;29.97;8.40;;;;;;;-12.17;57.89;100713.17;1682573;84;21470;-63
2021/01/19 00:19:25;;;;;;;27.87;8.97;;;;;;;-12.21;57.84;100708.89;1684996;83;21208;-63
2021/01/19 00:21:53;;;;;;;29.67;9.80;;;;;;;-12.20;57.81;100711.94;1671423;85;21168;-61
2021/01/19 00:24:20;;;;;;;26.00;8.70;;;;;;;-12.23;57.59;100711.58;1671497;85;21257;-62
2021/01/19 00:26:47;;;;;;;25.90;9.80;;;;;;;-12.26;57.74;100714.77;1671362;85;21556;-61
2021/01/19 00:29:15;;;;;;;33.03;10.87;;;;;;;-12.26;57.83;100710.35;1671479;85;21545;-62
2021/01/19 00:31:42;;;;;;;27.60;8.85;;;;;;;-12.18;58.01;100714.08;1684737;85;21544;-63
2021/01/19 00:34:09;;;;;;;26.20;9.53;;;;;;;-12.07;57.68;100712.42;1685401;83;21858;-63
2021/01/19 00:36:37;;;;;;;24.17;8.43;;;;;;;-12.12;57.50;100703.78;1672720;85;21881;-61
2021/01/19 00:39:05;;;;;;;28.80;8.85;;;;;;;-12.14;57.30;100702.51;1680638;85;21187;-63
2021/01/19 00:41:32;;;;;;;28.25;10.05;;;;;;;-12.17;57.42;100703.92;1680710;85;21406;-62
2021/01/19 00:44:00;;;;;;;30.00;9.83;;;;;;;-12.23;57.34;100705.44;1680401;84;21402;-62
2021/01/19 00:46:27;;;;;;;26.80;9.23;;;;;;;-12.27;57.36;100703.80;1680720;85;21187;-61
2021/01/19 00:48:55;;;;;;;25.68;9.95;;;;;;;-12.31;57.69;100696.43;1680480;85;21379;-62
2021/01/19 00:51:23;;;;;;;31.70;10.23;;;;;;;-12.23;57.81;100696.20;1680423;85;21402;-62
2021/01/19 00:53:51;;;;;;;21.00;6.55;;;;;;;-12.16;57.58;100693.77;1680560;84;21398;-62
2021/01/19 00:56:18;;;;;;;26.55;9.23;;;;;;;-12.24;57.33;100698.42;1680373;85;21869;-62
2021/01/19 00:58:46;;;;;;;30.35;9.78;;;;;;;-12.36;57.36;100687.75;1680242;84;21251;-63
2021/01/19 01:01:13;;;;;;;24.95;9.30;;;;;;;-12.41;57.54;100693.63;1680343;85;21366;-63
2021/01/19 01:03:41;;;;;;;32.30;10.03;;;;;;;-12.36;57.62;100685.56;1680379;85;21980;-62
2021/01/19 01:06:10;;;;;;;30.55;10.80;;;;;;;-12.36;57.63;100685.56;1685582;85;21450;-61
2021/01/19 01:08:38;;;;;;;21.52;8.78;;;;;;;-12.31;57.68;100690.28;1685804;83;21173;-63
2021/01/19 01:11:05;;;;;;;37.67;11.00;;;;;;;-12.38;57.60;100691.34;1672559;85;21410;-62
2021/01/19 01:13:34;;;;;;;30.00;10.40;;;;;;;-12.45;57.55;100687.17;1685711;85;21238;-62
2021/01/19 01:16:02;;;;;;;30.07;11.13;;;;;;;-12.46;57.74;100684.13;1658796;85;21150;-62
2021/01/19 01:18:33;;;;;;;31.90;10.30;;;;;;;-12.43;57.76;100687.53;1717517;82;21325;-62
2021/01/19 01:20:59;;;;;;;21.40;8.93;;;;;;;-12.42;57.75;100694.54;1717578;82;21333;-62
2021/01/19 01:23:28;;;;;;;30.67;10.53;;;;;;;-12.40;57.80;100687.89;1717488;83;21285;-62
2021/01/19 01:25:55;;;;;;;29.18;9.18;;;;;;;-12.35;57.96;100681.59;1682867;84;21286;-62
2021/01/19 01:28:22;;;;;;;24.67;8.15;;;;;;;-12.25;57.76;100680.86;1717510;82;21477;-62
2021/01/19 01:30:50;;;;;;;37.50;9.97;;;;;;;-12.26;57.66;100679.12;1717490;83;21356;-62
2021/01/19 01:33:17;;;;;;;20.93;7.33;;;;;;;-12.27;57.59;100678.72;1717401;82;21155;-62
2021/01/19 01:35:44;;;;;;;27.37;8.50;;;;;;;-12.29;57.28;100685.37;1717491;82;22014;-62
2021/01/19 01:38:12;;;;;;;32.43;10.20;;;;;;;-12.43;57.51;100683.57;1717502;83;21512;-62
2021/01/19 01:40:39;;;;;;;33.80;9.87;;;;;;;-12.53;57.39;100690.91;1717555;83;21185;-63
2021/01/19 01:43:14;;;;;;;26.53;10.23;;;;;;;-12.63;57.55;100685.49;1717592;82;21464;-62
2021/01/19 01:45:42;;;;;;;31.33;10.67;;;;;;;-12.66;57.79;100684.72;1717632;82;21289;-63
2021/01/19 01:48:10;;;;;;;29.27;9.10;;;;;;;-12.68;57.95;100684.77;1682866;83;21420;-63
2021/01/19 01:50:38;;;;;;;27.10;8.63;;;;;;;-12.58;58.23;100692.81;1717638;83;21201;-61
2021/01/19 01:53:06;;;;;;;26.37;8.77;;;;;;;-12.50;57.94;100687.31;1717499;82;21166;-62
2021/01/19 01:55:35;;;;;;;30.57;10.47;;;;;;;-12.52;57.79;100686.03;1717502;82;21421;-61
2021/01/19 01:58:03;;;;;;;28.15;9.65;;;;;;;-12.50;57.68;100685.98;1717560;82;21465;-60
2021/01/19 02:00:30;;;;;;;30.10;8.28;;;;;;;-12.44;57.70;100683.63;1717493;83;21384;-62
2021/01/19 02:02:58;;;;;;;33.87;9.63;;;;;;;-12.41;57.42;100690.12;1717540;83;21383;-63
2021/01/19 02:05:26;;;;;;;35.67;11.17;;;;;;;-12.46;57.26;100684.98;1717528;82;21482;-61
2021/01/19 02:08:25;;;;;;;22.37;7.43;;;;;;;-12.50;57.38;100685.98;1717525;82;21441;-62
2021/01/19 02:11:04;;;;;;;28.30;10.60;;;;;;;-12.47;57.35;100691.63;1717517;82;21396;-62
2021/01/19 02:13:54;;;;;;;19.10;7.43;;;;;;;-12.48;57.14;100694.72;1682888;85;21507;-62
2021/01/19 02:16:33;;;;;;;27.13;8.47;;;;;;;-12.50;57.06;100693.91;1684783;83;21176;-61
2021/01/19 02:19:29;;;;;;;31.13;10.00;;;;;;;-12.66;57.07;100694.81;1670627;86;21922;-62
2021/01/19 02:22:48;;;;;;;27.47;8.80;;;;;;;-12.82;57.23;100694.84;1680239;83;21916;-62
2021/01/19 02:25:42;;;;;;;19.20;6.90;;;;;;;-12.96;57.70;100693.06;1688002;83;21346;-64
2021/01/19 02:28:21;;;;;;;25.93;7.17;;;;;;;-12.90;57.96;100692.43;1670611;85;21446;-62
2021/01/19 02:31:07;;;;;;;23.30;7.80;;;;;;;-12.98;57.90;100685.64;1670655;85;21180;-62
2021/01/19 02:34:21;;;;;;;16.77;6.47;;;;;;;-13.14;57.93;100687.81;1670548;86;21931;-62
2021/01/19 02:36:56;;;;;;;25.57;8.83;;;;;;;-13.25;58.47;100696.05;1557220;92;21329;-62
2021/01/19 02:39:55;;;;;;;29.57;8.70;;;;;;;-13.27;58.71;100687.31;1603180;86;21516;-62
2021/01/19 02:42:30;;;;;;;26.43;8.33;;;;;;;-13.23;58.94;100685.00;1670564;85;21184;-62
2021/01/19 02:44:57;;;;;;;28.00;9.03;;;;;;;-13.21;58.88;100687.14;1670627;85;21464;-63
2021/01/19 02:47:24;;;;;;;20.73;7.37;;;;;;;-13.28;58.83;100679.45;1670544;85;21488;-64
2021/01/19 02:49:52;;;;;;;25.57;7.80;;;;;;;-13.25;58.96;100682.86;1670564;86;21954;-63
2021/01/19 02:52:19;;;;;;;24.10;8.57;;;;;;;-13.17;58.67;100692.74;1670501;86;21173;-64
2021/01/19 02:54:46;;;;;;;19.50;8.17;;;;;;;-13.17;58.33;100691.88;1670565;86;21951;-62
2021/01/19 02:58:04;;;;;;;22.30;6.30;;;;;;;-13.21;58.17;100688.46;1670535;85;21938;-62
2021/01/19 03:00:49;;;;;;;21.27;7.37;;;;;;;-13.18;58.39;100688.38;1670281;85;21180;-64
2021/01/19 03:03:16;;;;;;;21.63;7.10;;;;;;;-13.20;58.10;100691.97;1670545;85;21792;-63
2021/01/19 03:05:44;;;;;;;22.63;6.97;;;;;;;-13.22;58.23;100695.96;1670574;85;21504;-61
2021/01/19 03:08:11;;;;;;;20.80;7.07;;;;;;;-13.22;58.28;100693.33;1670695;85;21911;-61
2021/01/19 03:10:41;;;;;;;13.73;3.97;;;;;;;-13.25;58.18;100689.45;1670640;86;21224;-62
2021/01/19 03:13:13;;;;;;;19.40;6.23;;;;;;;-13.30;58.08;100694.44;1670450;86;21980;-63
2021/01/19 03:15:40;;;;;;;20.87;6.23;;;;;;;-13.40;58.14;100696.91;1670511;85;21438;-62
2021/01/19 03:18:08;;;;;;;21.07;6.60;;;;;;;-13.43;58.23;100688.63;1670524;85;21376;-62
2021/01/19 03:20:36;;;;;;;11.17;4.13;;;;;;;-13.50;58.35;100685.29;1658828;85;21335;-62
2021/01/19 03:23:04;;;;;;;15.17;5.30;;;;;;;-13.44;58.43;100688.67;1687983;83;21964;-63
2021/01/19 03:25:31;;;;;;;14.43;5.87;;;;;;;-13.49;58.46;100684.84;1687940;85;21809;-62
2021/01/19 03:27:58;;;;;;;11.40;4.00;;;;;;;-13.52;58.46;100690.19;1688002;83;21172;-62
2021/01/19 03:30:26;;;;;;;12.23;4.10;;;;;;;-13.55;58.51;100678.41;1687917;83;21870;-63
2021/01/19 03:32:53;;;;;;;18.47;6.00;;;;;;;-13.58;58.50;100676.72;1687964;85;21549;-61
2021/01/19 03:35:21;;;;;;;16.07;5.43;;;;;;;-13.73;58.66;100689.39;1687966;85;21429;-65
2021/01/19 03:37:49;;;;;;;13.93;4.87;;;;;;;-13.78;58.84;100681.15;1687907;83;21305;-63
2021/01/19 03:40:16;;;;;;;16.53;5.93;;;;;;;-13.76;59.02;100682.42;1688074;83;21905;-62
2021/01/19 03:42:44;;;;;;;18.80;7.13;;;;;;;-13.75;59.08;100681.97;1687892;83;21307;-63
2021/01/19 03:45:12;;;;;;;17.43;6.60;;;;;;;-13.74;59.08;100688.52;1687992;83;21437;-63
2021/01/19 03:47:40;;;;;;;17.37;6.03;;;;;;;-13.72;59.06;100688.48;1688015;85;21184;-62
2021/01/19 03:50:09;;;;;;;16.37;6.20;;;;;;;-13.77;58.95;100688.59;1687914;83;21413;-62
2021/01/19 03:52:37;;;;;;;15.53;6.03;;;;;;;-13.77;58.98;100687.28;1687987;83;21189;-61
2021/01/19 03:55:05;;;;;;;19.67;6.77;;;;;;;-13.69;59.01;100689.72;1687897;85;21229;-63
2021/01/19 03:57:33;;;;;;;20.53;6.40;;;;;;;-13.67;58.77;100691.86;1687857;83;21876;-62
2021/01/19 04:00:00;;;;;;;20.23;6.80;;;;;;;-13.66;58.96;100687.01;1688001;83;21937;-61
2021/01/19 04:02:28;;;;;;;24.93;7.63;;;;;;;-13.63;58.77;100684.33;1687862;83;21942;-62
2021/01/19 04:04:56;;;;;;;20.57;7.37;;;;;;;-13.61;58.85;100683.84;1687945;83;21156;-63
2021/01/19 04:07:25;;;;;;;23.43;7.60;;;;;;;-13.49;58.96;100685.70;1687943;83;21188;-62
2021/01/19 04:09:53;;;;;;;22.80;7.87;;;;;;;-13.40;58.55;100685.91;1687929;83;21461;-62
2021/01/19 04:12:20;;;;;;;16.70;6.53;;;;;;;-13.38;58.50;100687.19;1687927;83;21450;-63
2021/01/19 04:14:48;;;;;;;22.40;7.67;;;;;;;-13.34;58.39;100684.43;1688019;85;21157;-63
2021/01/19 04:17:15;;;;;;;22.83;7.87;;;;;;;-13.34;58.42;100696.29;1687953;85;21412;-63
2021/01/19 04:19:43;;;;;;;19.17;6.20;;;;;;;-13.25;58.64;100682.86;1688015;83;21337;-63
2021/01/19 04:22:10;;;;;;;13.13;3.80;;;;;;;-13.13;58.42;100689.54;1688015;85;21153;-61
2021/01/19 04:24:38;;;;;;;21.40;7.07;;;;;;;-13.17;58.08;100688.80;1687943;83;21165;-63
2021/01/19 04:27:05;;;;;;;18.73;6.60;;;;;;;-13.29;57.96;100677.27;1688049;83;21352;-63
2021/01/19 04:29:33;;;;;;;24.07;7.77;;;;;;;-13.47;57.65;100685.66;1687955;85;21368;-63
2021/01/19 04:32:00;;;;;;;23.83;7.60;;;;;;;-13.66;57.95;100685.23;1687961;85;21924;-63
2021/01/19 04:34:28;;;;;;;25.00;8.10;;;;;;;-13.75;58.31;100684.16;1687926;83;21161;-62
2021/01/19 04:36:55;;;;;;;22.27;7.30;;;;;;;-13.84;58.40;100684.39;1687987;85;21993;-63
2021/01/19 04:39:22;;;;;;;23.93;5.43;;;;;;;-14.01;58.41;100684.80;1687922;83;21550;-62
2021/01/19 04:41:50;;;;;;;21.77;6.87;;;;;;;-14.19;58.69;100692.69;1687895;85;21393;-63
2021/01/19 04:44:18;;;;;;;19.73;6.70;;;;;;;-14.29;58.94;100695.56;1687936;85;21287;-62
2021/01/19 04:46:46;;;;;;;14.53;4.47;;;;;;;-14.27;59.30;100689.36;1687871;83;21224;-62
2021/01/19 04:49:13;;;;;;;14.13;5.47;;;;;;;-14.24;59.27;100689.74;1687886;83;21399;-62
2021/01/19 04:56:03;;;;;;;18.13;6.90;;;;;;;-14.34;59.32;100702.66;1701184;83;21122;-62
2021/01/19 04:58:31;;;;;;;17.87;6.90;;;;;;;-14.43;59.37;100703.31;1704876;84;21317;-62
2021/01/19 05:01:07;;;;;;;25.30;6.77;;;;;;;-14.42;59.60;100708.95;1684579;85;21885;-64
2021/01/19 05:03:56;;;;;;;26.25;8.23;;;;;;;-14.35;59.70;100723.30;1684831;85;21305;-64
2021/01/19 05:06:38;;;;;;;29.17;9.37;;;;;;;-14.24;59.75;100716.06;1684756;85;21349;-61
2021/01/19 05:09:10;;;;;;;21.77;6.70;;;;;;;-14.20;59.40;100725.61;1666779;85;21763;-62
2021/01/19 05:11:50;;;;;;;20.17;5.60;;;;;;;-14.30;59.41;100723.64;1684545;83;21193;-62
2021/01/19 05:14:20;;;;;;;19.57;6.50;;;;;;;-14.31;59.59;100717.06;1684776;85;21201;-61
2021/01/19 05:16:49;;;;;;;23.60;7.17;;;;;;;-14.34;59.46;100725.89;1684859;84;21518;-62
2021/01/19 05:19:20;;;;;;;22.53;7.13;;;;;;;-14.41;59.55;100723.84;1687178;85;21376;-63
2021/01/19 05:21:49;;;;;;;24.93;7.07;;;;;;;-14.44;59.67;100725.27;1739835;82;21885;-63
2021/01/19 05:24:16;;;;;;;28.37;8.30;;;;;;;-14.34;59.87;100734.23;1712754;82;21507;-63
2021/01/19 05:26:44;;;;;;;27.30;7.27;;;;;;;-14.30;59.70;100738.11;1712991;82;21165;-62
2021/01/19 05:29:12;;;;;;;18.73;6.30;;;;;;;-14.27;59.70;100731.91;1739716;82;21975;-62
2021/01/19 05:31:39;;;;;;;22.07;7.50;;;;;;;-14.17;59.77;100733.44;1739789;82;21421;-62
2021/01/19 05:34:12;;;;;;;18.73;6.20;;;;;;;-14.14;59.45;100732.05;1739820;82;21320;-63
2021/01/19 05:36:49;;;;;;;20.77;7.00;;;;;;;-14.15;59.46;100729.88;1739874;82;21415;-64
2021/01/19 05:39:21;;;;;;;17.40;6.45;;;;;;;-14.16;59.26;100736.48;1739864;81;21863;-62
2021/01/19 05:41:51;;;;;;;22.97;6.57;;;;;;;-14.28;59.20;100738.95;1739563;82;21947;-63
2021/01/19 05:44:32;;;;;;;21.47;6.33;;;;;;;-14.39;59.32;100741.36;1739328;82;21837;-61
2021/01/19 05:47:05;;;;;;;12.40;4.87;;;;;;;-14.48;59.52;100742.01;1739864;81;21197;-62
2021/01/19 05:49:40;;;;;;;17.10;5.60;;;;;;;-14.58;59.60;100744.42;1739802;82;21911;-63
2021/01/19 05:52:11;;;;;;;27.60;7.33;;;;;;;-14.66;59.74;100746.79;1739934;81;21185;-63
2021/01/19 05:54:44;;;;;;;17.10;5.67;;;;;;;-14.76;59.94;100740.85;1739889;81;21189;-62
2021/01/19 05:57:15;;;;;;;24.60;7.37;;;;;;;-14.70;60.24;100742.04;1739796;82;21435;-63
2021/01/19 05:59:47;;;;;;;22.47;6.57;;;;;;;-14.54;60.46;100736.88;1739824;81;21480;-63
2021/01/19 06:02:16;;;;;;;16.50;5.30;;;;;;;-14.39;60.05;100740.05;1739836;82;21173;-63
2021/01/19 06:04:52;;;;;;;21.17;6.87;;;;;;;-14.41;59.72;100733.50;1739776;82;21388;-63
2021/01/19 06:07:21;;;;;;;12.27;4.10;;;;;;;-14.47;59.51;100741.11;1739801;82;21468;-62
2021/01/19 06:09:49;;;;;;;9.23;3.03;;;;;;;-14.53;59.60;100729.85;1739843;82;21174;-63
2021/01/19 06:12:18;;;;;;;20.43;5.93;;;;;;;-14.47;59.68;100739.80;1739798;81;21169;-61
2021/01/19 06:14:50;;;;;;;18.23;5.90;;;;;;;-14.50;59.71;100735.92;1739778;82;21441;-63
2021/01/19 06:17:22;;;;;;;29.10;7.70;;;;;;;-14.49;59.77;100732.39;1740221;82;21169;-62
2021/01/19 06:19:52;;;;;;;20.57;5.90;;;;;;;-14.48;59.95;100735.87;1743194;81;21296;-62
2021/01/19 06:22:25;;;;;;;25.47;7.37;;;;;;;-14.40;59.90;100740.50;1743163;82;21409;-63
2021/01/19 06:24:56;;;;;;;26.37;8.40;;;;;;;-14.41;59.92;100736.13;1743349;82;21881;-62
2021/01/19 06:27:28;;;;;;;23.70;7.13;;;;;;;-14.37;59.98;100736.94;1743076;82;21961;-62
2021/01/19 06:30:04;;;;;;;23.77;8.17;;;;;;;-14.27;60.20;100740.67;1743306;82;21213;-62
2021/01/19 06:32:47;;;;;;;27.43;6.73;;;;;;;-14.12;60.04;100742.09;1743148;82;21535;-64
2021/01/19 06:35:22;;;;;;;25.53;7.93;;;;;;;-14.04;60.19;100745.42;1743284;82;21392;-62
2021/01/19 06:37:52;;;;;;;32.63;9.47;;;;;;;-13.96;59.94;100754.00;1743268;82;21650;-63
2021/01/19 06:40:24;;;;;;;39.67;9.93;;;;;;;-13.91;59.78;100753.89;1743119;82;21365;-62
2021/01/19 06:43:02;;;;;;;23.87;7.33;;;;;;;-13.82;59.75;100758.50;1743083;81;21836;-63
2021/01/19 06:45:32;;;;;;;21.70;7.37;;;;;;;-13.82;59.30;100755.86;1743030;81;21196;-62
2021/01/19 06:48:02;;;;;;;18.73;6.60;;;;;;;-13.80;59.28;100751.42;1743139;81;21416;-62
2021/01/19 06:50:34;;;;;;;19.13;6.33;;;;;;;-13.72;59.14;100760.91;1743199;81;21197;-62
2021/01/19 06:53:18;;;;;;;28.43;9.00;;;;;;;-13.71;58.99;100756.06;1743226;82;22011;-62
2021/01/19 06:56:04;;;;;;;18.77;6.67;;;;;;;-13.76;58.66;100757.48;1743074;82;21285;-63
2021/01/19 06:58:54;;;;;;;24.60;8.53;;;;;;;-13.77;58.74;100753.98;1743261;81;21922;-65
2021/01/19 07:01:28;;;;;;;27.20;8.10;;;;;;;-13.72;58.75;100761.77;1743183;82;21519;-63
2021/01/19 07:04:20;;;;;;;17.32;5.55;;;;;;;-13.60;58.74;100759.33;1743322;81;21154;-62
2021/01/19 07:07:07;;;;;;;19.63;6.50;;;;;;;-13.55;58.32;100756.99;1660512;82;22001;-62
2021/01/19 07:10:11;;;;;;;21.33;6.87;;;;;;;-13.55;58.05;100767.53;1720065;82;21998;-62
2021/01/19 07:13:04;;;;;;;20.70;7.33;;;;;;;-13.63;58.09;100763.36;1743090;81;21448;-63
2021/01/19 07:16:04;;;;;;;16.77;5.63;;;;;;;-13.62;58.07;100771.22;1743301;81;21300;-62
2021/01/19 07:19:06;;;;;;;18.47;6.13;;;;;;;-13.68;58.09;100767.83;1743116;82;21224;-62
2021/01/19 07:22:07;;;;;;;16.43;5.97;;;;;;;-13.65;58.22;100769.11;1742984;82;21197;-63
2021/01/19 07:24:41;;;;;;;18.77;5.67;;;;;;;-13.58;58.32;100765.42;1742860;82;21583;-62
2021/01/19 07:27:15;;;;;;;20.77;7.20;;;;;;;-13.55;58.09;100773.25;1742807;82;21232;-63
2021/01/19 07:29:43;;;;;;;23.13;8.00;;;;;;;-13.53;58.41;100764.86;1743194;82;21166;-62
2021/01/19 07:32:26;;;;;;;23.43;7.67;;;;;;;-13.39;58.31;100766.70;1719866;82;21924;-64
2021/01/19 07:34:53;;;;;;;20.50;6.93;;;;;;;-13.36;58.23;100773.20;1743102;82;21200;-63
2021/01/19 07:37:33;;;;;;;19.47;5.97;;;;;;;-13.30;58.22;100777.00;1743140;81;21927;-63
2021/01/19 07:40:16;;;;;;;21.07;6.50;;;;;;;-13.29;58.91;100776.55;1743054;81;21375;-63
2021/01/19 07:42:43;;;;;;;16.10;5.77;;;;;;;-13.09;59.10;100778.64;1743197;82;21392;-63
2021/01/19 07:45:11;;;;;;;26.47;8.80;;;;;;;-12.92;58.30;100789.64;1743166;81;21476;-62
2021/01/19 07:47:43;;;;;;;23.60;7.73;;;;;;;-12.90;58.59;100778.14;1743127;81;21178;-63
2021/01/19 07:50:15;;;;;;;26.87;8.53;;;;;;;-12.77;58.27;100780.00;1742887;82;21502;-62
2021/01/19 07:52:44;;;;;;;36.43;10.23;;;;;;;-12.65;58.04;100790.66;1743022;82;21383;-63
2021/01/19 07:55:18;;;;;;;29.27;9.47;;;;;;;-12.65;57.38;100786.25;1743158;81;21485;-64
2021/01/19 07:57:51;;;;;;;32.27;8.63;;;;;;;-12.67;57.19;100788.06;1743226;82;21181;-63
2021/01/19 08:00:26;;;;;;;29.47;8.53;;;;;;;-12.75;57.16;100786.09;1743208;82;21325;-63
2021/01/19 08:03:06;;;;;;;24.00;8.50;;;;;;;-12.72;57.54;100784.69;1743187;82;21295;-63
2021/01/19 08:05:35;;;;;;;30.27;9.37;;;;;;;-12.64;57.30;100789.76;1743220;82;21419;-64
2021/01/19 08:08:17;;;;;;;35.53;11.97;;;;;;;-12.64;57.18;100789.30;1743202;82;21177;-62
2021/01/19 08:10:56;;;;;;;40.87;11.87;;;;;;;-12.56;57.09;100788.63;1743032;81;21487;-63
2021/01/19 08:13:24;;;;;;;36.83;12.33;;;;;;;-12.52;56.93;100793.37;1726191;81;21275;-63
2021/01/19 08:16:05;;;;;;;39.43;12.07;;;;;;;-12.52;56.91;100788.95;1692172;83;21394;-63
2021/01/19 08:18:40;;;;;;;36.20;11.40;;;;;;;-12.55;56.79;100787.72;1682396;84;21183;-62
2021/01/19 08:21:09;;;;;;;41.47;12.73;;;;;;;-12.57;56.80;100786.91;1683328;84;21466;-63
2021/01/19 08:23:37;;;;;;;42.50;12.33;;;;;;;-12.53;56.97;100781.08;1683419;85;21426;-63
2021/01/19 08:26:07;;;;;;;44.33;13.77;;;;;;;-12.37;57.13;100778.87;1683407;84;21950;-64
2021/01/19 08:28:36;;;;;;;34.13;12.00;;;;;;;-12.28;57.13;100789.19;1683305;84;21302;-63
2021/01/19 08:31:15;;;;;;;36.70;11.70;;;;;;;-12.04;57.28;100782.31;1683367;85;21749;-63
2021/01/19 08:33:49;;;;;;;31.50;9.35;;;;;;;-11.87;56.78;100788.81;1683370;84;21188;-63
2021/01/19 08:36:12;;;;;;;27.43;8.53;;;;;;;-11.78;56.35;100784.16;1659727;85;21831;-63
2021/01/19 08:38:40;;;;;;;29.00;9.50;;;;;;;-11.81;55.75;100793.05;1683308;84;21183;-63
2021/01/19 08:41:12;;;;;;;31.33;8.98;;;;;;;-11.93;55.63;100794.28;1659599;84;21597;-63
2021/01/19 08:43:43;;;;;;;31.80;10.60;;;;;;;-12.01;55.46;100788.38;1660120;85;21204;-63
2021/01/19 08:46:14;;;;;;;25.17;8.58;;;;;;;-12.06;56.07;100784.14;1666018;84;21196;-62
2021/01/19 08:48:42;;;;;;;29.77;9.67;;;;;;;-11.93;55.86;100790.78;1698434;84;21372;-62
2021/01/19 08:51:23;;;;;;;26.33;9.00;;;;;;;-11.91;55.62;100784.53;1698383;84;21153;-62
2021/01/19 08:53:51;;;;;;;29.00;10.10;;;;;;;-11.83;55.34;100771.55;1698562;84;21498;-62
2021/01/19 08:56:20;;;;;;;37.35;12.20;;;;;;;-12.04;55.46;100777.03;1698460;84;21177;-63
2021/01/19 08:58:47;;;;;;;22.20;7.53;;;;;;;-12.06;55.83;100777.08;1698603;84;21893;-63
2021/01/19 09:01:15;;;;;;;28.23;10.23;;;;;;;-12.08;55.74;100774.08;1698550;84;21544;-64
2021/01/19 09:03:42;;;;;;;29.03;8.63;;;;;;;-12.08;55.98;100767.47;1694573;84;21200;-64
2021/01/19 09:06:12;;;;;;;24.07;8.17;;;;;;;-12.04;55.87;100771.75;1657981;83;21154;-69
2021/01/19 09:08:43;;;;;;;18.05;6.92;;;;;;;-12.01;55.71;100767.24;1685148;84;21945;-63
2021/01/19 09:11:10;;;;;;;25.35;9.10;;;;;;;-11.97;55.59;100763.59;1680403;85;21888;-66
2021/01/19 09:13:39;;;;;;;26.82;9.78;;;;;;;-11.93;55.54;100754.66;1682204;85;21176;-64
2021/01/19 09:16:07;;;;;;;35.15;10.43;;;;;;;-11.85;55.61;100748.68;1655296;84;21475;-65
2021/01/19 09:18:36;;;;;;;26.43;8.97;;;;;;;-11.77;55.34;100748.41;1671527;84;21218;-64
2021/01/19 09:21:10;;;;;;;25.90;9.03;;;;;;;-11.68;55.42;100749.46;1718609;82;22021;-65
2021/01/19 09:23:38;;;;;;;23.25;8.48;;;;;;;-11.47;55.27;100754.96;1717433;82;21165;-67
2021/01/19 09:26:08;;;;;;;26.75;9.13;;;;;;;-11.25;54.87;100752.00;1717250;82;21914;-65
2021/01/19 09:28:36;;;;;;;24.00;8.33;;;;;;;-11.15;54.70;100739.33;1717486;82;21546;-64
2021/01/19 09:31:19;;;;;;;23.42;8.88;;;;;;;-11.05;54.19;100747.39;1717518;82;21185;-65
2021/01/19 09:33:55;;;;;;;32.85;10.38;;;;;;;-10.99;54.02;100748.50;1717654;82;21877;-64
2021/01/19 09:36:23;;;;;;;22.20;7.03;;;;;;;-10.88;54.35;100742.37;1715259;82;21350;-69
2021/01/19 09:38:53;;;;;;;21.23;7.20;;;;;;;-10.81;53.77;100745.66;1717503;82;21433;-69
2021/01/19 09:41:24;;;;;;;33.13;9.55;;;;;;;-10.86;53.63;100741.85;1716667;83;21357;-66
2021/01/19 09:43:55;;;;;;;30.95;11.05;;;;;;;-11.02;53.53;100741.98;1717472;83;21337;-64
2021/01/19 09:46:25;;;;;;;33.95;11.10;;;;;;;-11.00;54.12;100741.48;1682731;83;21440;-64
2021/01/19 09:48:55;;;;;;;27.77;9.70;;;;;;;-10.90;53.85;100745.52;1682892;85;21855;-67
2021/01/19 09:51:29;;;;;;;27.98;8.28;;;;;;;-10.83;53.78;100741.74;1717457;82;21385;-68
2021/01/19 09:53:58;;;;;;;31.52;11.10;;;;;;;-10.78;53.56;100739.80;1717410;82;21507;-73
2021/01/19 09:56:26;;;;;;;39.40;12.70;;;;;;;-10.83;53.69;100735.59;1682760;84;21833;-69
2021/01/19 09:59:09;;;;;;;34.85;11.53;;;;;;;-10.82;53.64;100739.50;1683083;83;21742;-73
2021/01/19 10:01:37;;;;;;;36.98;12.23;;;;;;;-10.91;53.25;100731.89;1682719;83;21158;-65
2021/01/19 10:04:05;;;;;;;33.78;12.10;;;;;;;-11.05;53.66;100739.45;1682208;83;21900;-67
2021/01/19 10:06:32;;;;;;;28.42;10.45;;;;;;;-11.03;53.79;100733.65;1696284;84;21201;-65
2021/01/19 10:09:00;;;;;;;31.95;10.78;;;;;;;-11.01;54.03;100730.48;1739550;82;22097;-67
2021/01/19 10:11:35;;;;;;;28.73;8.98;;;;;;;-10.98;53.81;100728.59;1739552;81;21567;-65
2021/01/19 10:14:18;;;;;;;25.08;9.53;;;;;;;-10.97;53.55;100722.84;1737083;81;21966;-64
2021/01/19 10:16:50;;;;;;;28.62;9.30;;;;;;;-11.01;53.71;100719.91;1716374;83;21926;-64
2021/01/19 10:19:27;;;;;;;25.20;9.50;;;;;;;-11.00;53.54;100718.98;1741845;81;21511;-63
2021/01/19 10:21:56;;;;;;;33.65;10.75;;;;;;;-11.00;53.63;100709.73;1744577;81;21201;-64
2021/01/19 10:24:25;;;;;;;29.63;11.20;;;;;;;-10.95;53.63;100715.26;1744407;82;21169;-64
2021/01/19 10:27:09;;;;;;;28.98;11.03;;;;;;;-10.91;53.61;100709.40;1744568;82;21845;-63
2021/01/19 10:29:42;;;;;;;36.15;11.93;;;;;;;-10.73;53.76;100711.37;1744634;81;21437;-65
2021/01/19 10:32:14;;;;;;;28.75;10.45;;;;;;;-10.47;53.63;100714.38;1744571;82;21397;-64
2021/01/19 10:34:51;;;;;;;103.50;37.53;;;;;;;-10.36;53.16;100706.06;1744588;81;21488;-64
2021/01/19 10:37:19;;;;;;;32.20;11.50;;;;;;;-10.33;53.13;100707.27;1735216;82;21333;-68
2021/01/19 10:39:58;;;;;;;26.90;9.40;;;;;;;-10.24;53.26;100701.62;1719552;82;21916;-69
2021/01/19 10:42:29;;;;;;;30.48;11.60;;;;;;;-10.09;52.80;100694.82;1719430;82;22064;-77
2021/01/19 10:45:00;;;;;;;28.98;10.03;;;;;;;-10.06;52.55;100690.27;1714709;81;21222;-71
2021/01/19 10:47:40;;;;;;;28.60;9.90;;;;;;;-9.93;52.10;100694.61;1718984;83;21308;-77
2021/01/19 10:50:14;;;;;;;28.27;9.20;;;;;;;-9.92;52.38;100679.98;1720092;82;21162;-77
2021/01/19 10:52:42;;;;;;;29.37;10.58;;;;;;;-9.78;52.51;100679.88;1719236;82;21198;-77
2021/01/19 10:55:09;;;;;;;32.50;10.38;;;;;;;-9.67;52.07;100676.35;1718283;82;21163;-81
2021/01/19 10:57:39;;;;;;;30.95;11.03;;;;;;;-9.51;52.00;100676.11;1714884;82;21170;-76
2021/01/19 11:00:09;;;;;;;40.10;14.38;;;;;;;-9.30;52.02;100676.52;1719731;82;21623;-73
2021/01/19 11:02:37;;;;;;;41.28;13.58;;;;;;;-9.03;51.83;100672.31;1724852;82;21203;-76
2021/01/19 11:05:06;;;;;;;39.38;12.47;;;;;;;-8.88;51.52;100671.63;1718589;82;21551;-72
2021/01/19 11:07:35;;;;;;;25.75;10.38;;;;;;;-8.83;51.10;100666.11;1715232;83;21154;-76
2021/01/19 11:10:03;;;;;;;22.40;8.20;;;;;;;-8.96;50.84;100669.31;1715733;82;21150;-75
2021/01/19 11:12:31;;;;;;;26.57;9.68;;;;;;;-9.24;50.51;100666.58;1720275;80;21991;-70
2021/01/19 11:14:59;;;;;;;37.38;13.68;;;;;;;-9.62;50.95;100662.44;1717859;82;21194;-73
2021/01/19 11:17:27;;;;;;;29.85;10.55;;;;;;;-9.76;51.54;100655.03;1713426;83;21170;-68
2021/01/19 11:19:56;;;;;;;24.07;8.50;;;;;;;-9.63;52.25;100659.39;1711259;83;21130;-73
2021/01/19 11:22:23;;;;;;;31.12;10.95;;;;;;;-9.51;52.18;100654.90;1713485;82;21154;-72
2021/01/19 11:24:51;;;;;;;32.05;10.15;;;;;;;-9.52;52.14;100651.84;1719522;82;21841;-69
2021/01/19 11:27:18;;;;;;;26.45;8.35;;;;;;;-9.43;52.13;100659.88;1717232;83;21392;-70
2021/01/19 11:29:48;;;;;;;25.35;9.10;;;;;;;-9.39;51.42;100657.02;1719484;83;21141;-73
2021/01/19 11:32:15;;;;;;;25.45;8.80;;;;;;;-9.51;51.10;100649.59;1719359;82;21184;-72
2021/01/19 11:34:43;;;;;;;27.40;8.75;;;;;;;-9.41;51.20;100644.76;1718439;82;21203;-72